Waubaushene, Canada
Current Conditions -  °F | °C
As of 11:00 AM on Sunday 21 Dec 2014 (Local Time) from CYQA Reporting Station
Broken Clouds Broken Clouds  
Wind Chill: 28°   Ceiling: 6000
Heat Index: 28°   Visibility: 9mi
Dew Point: 19°   Wind: 3mph
Humidity: 69%   Direction: 340°NNW
Pressure: 30.27"   Gusts: NA
Location:  44.75°N, 79.7°W
Report Text: CYQA 211600Z AUTO 34003KT 9SM SCT029 BKN060 M02/M07 A3027 RMK SLP267
Loading
Personal Weather Stations






























Interactive Weather Map New forecast layout! Learn more

10-Day Weather Forecast

Advertisements
Track Severe Weather on mobile